sensor_id;sensor_type;location;lat;lon;timestamp;P1;durP1;ratioP1;P2;durP2;ratioP2
60964;SDS011;46834;51.100;6.886;2022-12-16T00:01:19;36.43;;;18.80;;
60964;SDS011;46834;51.100;6.886;2022-12-16T00:03:47;29.40;;;17.10;;
60964;SDS011;46834;51.100;6.886;2022-12-16T00:06:16;34.07;;;17.77;;
60964;SDS011;46834;51.100;6.886;2022-12-16T00:08:42;34.43;;;18.43;;
60964;SDS011;46834;51.100;6.886;2022-12-16T00:11:08;36.77;;;17.40;;
60964;SDS011;46834;51.100;6.886;2022-12-16T00:13:35;37.83;;;18.37;;
60964;SDS011;46834;51.100;6.886;2022-12-16T00:16:14;34.43;;;18.67;;
60964;SDS011;46834;51.100;6.886;2022-12-16T00:18:41;33.77;;;17.27;;
60964;SDS011;46834;51.100;6.886;2022-12-16T00:21:07;33.80;;;17.67;;
60964;SDS011;46834;51.100;6.886;2022-12-16T00:23:33;36.03;;;18.80;;
60964;SDS011;46834;51.100;6.886;2022-12-16T00:26:00;33.10;;;17.37;;
60964;SDS011;46834;51.100;6.886;2022-12-16T00:28:26;35.17;;;17.87;;
60964;SDS011;46834;51.100;6.886;2022-12-16T00:30:53;35.97;;;18.10;;
60964;SDS011;46834;51.100;6.886;2022-12-16T00:33:21;36.10;;;18.60;;
60964;SDS011;46834;51.100;6.886;2022-12-16T00:35:49;34.10;;;17.43;;
60964;SDS011;46834;51.100;6.886;2022-12-16T00:38:16;36.87;;;18.17;;
60964;SDS011;46834;51.100;6.886;2022-12-16T00:40:42;35.43;;;17.10;;
60964;SDS011;46834;51.100;6.886;2022-12-16T00:43:08;29.90;;;16.53;;
60964;SDS011;46834;51.100;6.886;2022-12-16T00:45:35;30.03;;;15.83;;
60964;SDS011;46834;51.100;6.886;2022-12-16T00:48:01;29.10;;;16.43;;
60964;SDS011;46834;51.100;6.886;2022-12-16T00:50:27;30.60;;;16.03;;
60964;SDS011;46834;51.100;6.886;2022-12-16T00:52:53;29.73;;;15.80;;
60964;SDS011;46834;51.100;6.886;2022-12-16T00:55:19;29.40;;;15.60;;
60964;SDS011;46834;51.100;6.886;2022-12-16T00:57:45;34.70;;;17.40;;
60964;SDS011;46834;51.100;6.886;2022-12-16T01:00:12;35.03;;;16.67;;
60964;SDS011;46834;51.100;6.886;2022-12-16T01:02:40;29.17;;;15.77;;
60964;SDS011;46834;51.100;6.886;2022-12-16T01:05:08;29.13;;;15.63;;
60964;SDS011;46834;51.100;6.886;2022-12-16T01:07:37;31.03;;;16.03;;
60964;SDS011;46834;51.100;6.886;2022-12-16T01:10:03;29.63;;;16.17;;
60964;SDS011;46834;51.100;6.886;2022-12-16T01:12:31;26.37;;;14.73;;
60964;SDS011;46834;51.100;6.886;2022-12-16T01:14:57;34.40;;;16.97;;
60964;SDS011;46834;51.100;6.886;2022-12-16T01:17:24;29.90;;;15.90;;
60964;SDS011;46834;51.100;6.886;2022-12-16T01:19:51;31.57;;;17.13;;
60964;SDS011;46834;51.100;6.886;2022-12-16T01:22:17;31.53;;;17.07;;
60964;SDS011;46834;51.100;6.886;2022-12-16T01:24:45;29.83;;;16.10;;
60964;SDS011;46834;51.100;6.886;2022-12-16T01:27:11;29.07;;;16.00;;
60964;SDS011;46834;51.100;6.886;2022-12-16T01:29:38;29.47;;;16.10;;
60964;SDS011;46834;51.100;6.886;2022-12-16T01:32:04;28.23;;;15.53;;
60964;SDS011;46834;51.100;6.886;2022-12-16T01:34:30;31.63;;;16.17;;
60964;SDS011;46834;51.100;6.886;2022-12-16T01:36:57;30.23;;;16.33;;
60964;SDS011;46834;51.100;6.886;2022-12-16T01:39:22;30.17;;;16.03;;
60964;SDS011;46834;51.100;6.886;2022-12-16T01:41:50;34.77;;;17.30;;
60964;SDS011;46834;51.100;6.886;2022-12-16T01:44:17;28.27;;;15.83;;
60964;SDS011;46834;51.100;6.886;2022-12-16T01:46:59;29.17;;;15.13;;
60964;SDS011;46834;51.100;6.886;2022-12-16T01:49:34;26.17;;;15.40;;
60964;SDS011;46834;51.100;6.886;2022-12-16T01:52:14;26.87;;;15.07;;
60964;SDS011;46834;51.100;6.886;2022-12-16T01:54:49;32.23;;;16.33;;
60964;SDS011;46834;51.100;6.886;2022-12-16T01:57:44;24.90;;;14.27;;
60964;SDS011;46834;51.100;6.886;2022-12-16T02:00:19;30.73;;;15.47;;
60964;SDS011;46834;51.100;6.886;2022-12-16T02:02:45;31.40;;;15.83;;
60964;SDS011;46834;51.100;6.886;2022-12-16T02:05:11;29.57;;;15.63;;
60964;SDS011;46834;51.100;6.886;2022-12-16T02:10:41;27.33;;;14.57;;
60964;SDS011;46834;51.100;6.886;2022-12-16T02:16:31;25.77;;;13.57;;
60964;SDS011;46834;51.100;6.886;2022-12-16T02:22:22;29.40;;;15.73;;
60964;SDS011;46834;51.100;6.886;2022-12-16T02:25:31;26.97;;;13.60;;
60964;SDS011;46834;51.100;6.886;2022-12-16T02:28:34;26.63;;;13.83;;
60964;SDS011;46834;51.100;6.886;2022-12-16T02:34:09;28.83;;;14.33;;
60964;SDS011;46834;51.100;6.886;2022-12-16T02:39:25;28.47;;;15.47;;
60964;SDS011;46834;51.100;6.886;2022-12-16T02:42:05;27.67;;;14.13;;
60964;SDS011;46834;51.100;6.886;2022-12-16T02:47:40;27.43;;;13.77;;
60964;SDS011;46834;51.100;6.886;2022-12-16T02:52:57;31.50;;;15.10;;
60964;SDS011;46834;51.100;6.886;2022-12-16T02:55:28;27.63;;;14.23;;
60964;SDS011;46834;51.100;6.886;2022-12-16T03:05:10;26.17;;;13.77;;
60964;SDS011;46834;51.100;6.886;2022-12-16T03:07:16;28.63;;;14.97;;
60964;SDS011;46834;51.100;6.886;2022-12-16T03:09:46;28.23;;;14.80;;
60964;SDS011;46834;51.100;6.886;2022-12-16T03:12:15;28.73;;;14.73;;
60964;SDS011;46834;51.100;6.886;2022-12-16T03:14:44;26.10;;;14.07;;
60964;SDS011;46834;51.100;6.886;2022-12-16T03:17:16;29.07;;;14.87;;
60964;SDS011;46834;51.100;6.886;2022-12-16T03:19:49;24.73;;;13.43;;
60964;SDS011;46834;51.100;6.886;2022-12-16T03:22:27;27.77;;;13.93;;
60964;SDS011;46834;51.100;6.886;2022-12-16T03:24:56;28.30;;;14.67;;
60964;SDS011;46834;51.100;6.886;2022-12-16T03:27:41;25.97;;;13.90;;
60964;SDS011;46834;51.100;6.886;2022-12-16T03:30:17;25.90;;;14.27;;
60964;SDS011;46834;51.100;6.886;2022-12-16T03:32:59;24.13;;;13.50;;
60964;SDS011;46834;51.100;6.886;2022-12-16T03:35:47;26.60;;;14.00;;
60964;SDS011;46834;51.100;6.886;2022-12-16T03:38:20;25.93;;;13.13;;
60964;SDS011;46834;51.100;6.886;2022-12-16T03:40:48;25.67;;;14.03;;
60964;SDS011;46834;51.100;6.886;2022-12-16T03:43:15;28.90;;;14.53;;
60964;SDS011;46834;51.100;6.886;2022-12-16T03:45:43;25.97;;;13.43;;
60964;SDS011;46834;51.100;6.886;2022-12-16T03:48:10;25.77;;;14.43;;
60964;SDS011;46834;51.100;6.886;2022-12-16T03:50:38;28.07;;;14.53;;
60964;SDS011;46834;51.100;6.886;2022-12-16T03:53:05;31.13;;;15.03;;
60964;SDS011;46834;51.100;6.886;2022-12-16T03:55:32;27.10;;;14.67;;
60964;SDS011;46834;51.100;6.886;2022-12-16T03:57:58;27.63;;;14.63;;
60964;SDS011;46834;51.100;6.886;2022-12-16T04:00:24;26.93;;;14.87;;
60964;SDS011;46834;51.100;6.886;2022-12-16T04:02:50;28.67;;;14.40;;
60964;SDS011;46834;51.100;6.886;2022-12-16T04:05:16;24.53;;;13.63;;
60964;SDS011;46834;51.100;6.886;2022-12-16T04:07:42;24.00;;;14.13;;
60964;SDS011;46834;51.100;6.886;2022-12-16T04:10:08;27.43;;;14.63;;
60964;SDS011;46834;51.100;6.886;2022-12-16T04:12:34;28.53;;;13.63;;
60964;SDS011;46834;51.100;6.886;2022-12-16T04:15:18;27.20;;;14.40;;
60964;SDS011;46834;51.100;6.886;2022-12-16T04:18:13;26.00;;;13.53;;
60964;SDS011;46834;51.100;6.886;2022-12-16T04:21:01;23.53;;;12.50;;
60964;SDS011;46834;51.100;6.886;2022-12-16T04:23:51;27.93;;;14.40;;
60964;SDS011;46834;51.100;6.886;2022-12-16T04:26:39;23.37;;;12.57;;
60964;SDS011;46834;51.100;6.886;2022-12-16T04:29:24;25.10;;;13.27;;
60964;SDS011;46834;51.100;6.886;2022-12-16T04:31:49;26.03;;;14.33;;
60964;SDS011;46834;51.100;6.886;2022-12-16T04:34:16;26.07;;;13.50;;
60964;SDS011;46834;51.100;6.886;2022-12-16T04:36:54;27.33;;;13.43;;
60964;SDS011;46834;51.100;6.886;2022-12-16T04:39:41;24.73;;;13.10;;
60964;SDS011;46834;51.100;6.886;2022-12-16T04:42:27;30.53;;;14.40;;
60964;SDS011;46834;51.100;6.886;2022-12-16T04:45:12;25.50;;;13.00;;
60964;SDS011;46834;51.100;6.886;2022-12-16T04:47:57;27.00;;;14.03;;
60964;SDS011;46834;51.100;6.886;2022-12-16T04:50:41;25.87;;;13.60;;
60964;SDS011;46834;51.100;6.886;2022-12-16T04:53:27;30.30;;;15.07;;
60964;SDS011;46834;51.100;6.886;2022-12-16T04:56:11;24.00;;;13.23;;
60964;SDS011;46834;51.100;6.886;2022-12-16T04:58:55;26.97;;;13.10;;
60964;SDS011;46834;51.100;6.886;2022-12-16T05:01:39;29.53;;;13.10;;
60964;SDS011;46834;51.100;6.886;2022-12-16T05:04:24;24.97;;;13.20;;
60964;SDS011;46834;51.100;6.886;2022-12-16T05:07:08;26.83;;;13.00;;
60964;SDS011;46834;51.100;6.886;2022-12-16T05:09:52;25.03;;;12.77;;
60964;SDS011;46834;51.100;6.886;2022-12-16T05:12:36;24.53;;;12.80;;
60964;SDS011;46834;51.100;6.886;2022-12-16T05:15:21;23.57;;;12.47;;
60964;SDS011;46834;51.100;6.886;2022-12-16T05:18:12;23.33;;;12.00;;
60964;SDS011;46834;51.100;6.886;2022-12-16T05:20:59;25.73;;;12.50;;
60964;SDS011;46834;51.100;6.886;2022-12-16T05:23:45;25.30;;;12.87;;
60964;SDS011;46834;51.100;6.886;2022-12-16T05:26:30;29.63;;;12.97;;
60964;SDS011;46834;51.100;6.886;2022-12-16T05:29:15;27.60;;;13.90;;
60964;SDS011;46834;51.100;6.886;2022-12-16T05:31:59;27.77;;;12.60;;
60964;SDS011;46834;51.100;6.886;2022-12-16T05:34:43;24.33;;;13.03;;
60964;SDS011;46834;51.100;6.886;2022-12-16T05:37:28;24.07;;;12.93;;
60964;SDS011;46834;51.100;6.886;2022-12-16T05:40:12;25.90;;;12.60;;
60964;SDS011;46834;51.100;6.886;2022-12-16T05:42:56;25.70;;;12.83;;
60964;SDS011;46834;51.100;6.886;2022-12-16T05:45:40;22.83;;;11.60;;
60964;SDS011;46834;51.100;6.886;2022-12-16T05:48:25;21.97;;;12.00;;
60964;SDS011;46834;51.100;6.886;2022-12-16T05:51:10;22.33;;;12.13;;
60964;SDS011;46834;51.100;6.886;2022-12-16T05:53:54;25.23;;;12.93;;
60964;SDS011;46834;51.100;6.886;2022-12-16T05:56:39;22.77;;;12.57;;
60964;SDS011;46834;51.100;6.886;2022-12-16T05:59:24;23.53;;;12.17;;
60964;SDS011;46834;51.100;6.886;2022-12-16T06:02:08;26.93;;;13.60;;
60964;SDS011;46834;51.100;6.886;2022-12-16T06:04:52;27.23;;;12.87;;
60964;SDS011;46834;51.100;6.886;2022-12-16T06:07:37;24.67;;;12.57;;
60964;SDS011;46834;51.100;6.886;2022-12-16T06:10:21;25.37;;;13.30;;
60964;SDS011;46834;51.100;6.886;2022-12-16T06:13:05;26.43;;;12.77;;
60964;SDS011;46834;51.100;6.886;2022-12-16T06:15:49;24.90;;;11.93;;
60964;SDS011;46834;51.100;6.886;2022-12-16T06:18:35;22.33;;;12.53;;
60964;SDS011;46834;51.100;6.886;2022-12-16T06:21:19;25.33;;;12.50;;
60964;SDS011;46834;51.100;6.886;2022-12-16T06:24:04;25.10;;;12.60;;
60964;SDS011;46834;51.100;6.886;2022-12-16T06:26:48;20.67;;;11.53;;
60964;SDS011;46834;51.100;6.886;2022-12-16T06:29:33;23.30;;;12.50;;
60964;SDS011;46834;51.100;6.886;2022-12-16T06:32:16;24.17;;;13.10;;
60964;SDS011;46834;51.100;6.886;2022-12-16T06:35:00;23.03;;;12.43;;
60964;SDS011;46834;51.100;6.886;2022-12-16T06:37:48;24.50;;;12.10;;
60964;SDS011;46834;51.100;6.886;2022-12-16T06:40:32;28.77;;;13.03;;
60964;SDS011;46834;51.100;6.886;2022-12-16T06:43:16;24.50;;;12.93;;
60964;SDS011;46834;51.100;6.886;2022-12-16T06:46:00;26.47;;;12.60;;
60964;SDS011;46834;51.100;6.886;2022-12-16T06:48:45;28.20;;;14.70;;
60964;SDS011;46834;51.100;6.886;2022-12-16T06:51:29;32.57;;;14.63;;
60964;SDS011;46834;51.100;6.886;2022-12-16T06:54:13;36.67;;;15.17;;
60964;SDS011;46834;51.100;6.886;2022-12-16T06:56:57;39.10;;;15.13;;
60964;SDS011;46834;51.100;6.886;2022-12-16T06:59:41;34.07;;;14.93;;
60964;SDS011;46834;51.100;6.886;2022-12-16T07:02:25;28.53;;;14.67;;
60964;SDS011;46834;51.100;6.886;2022-12-16T07:05:09;25.53;;;13.30;;
60964;SDS011;46834;51.100;6.886;2022-12-16T07:07:53;29.90;;;14.13;;
60964;SDS011;46834;51.100;6.886;2022-12-16T07:10:37;26.77;;;13.03;;
60964;SDS011;46834;51.100;6.886;2022-12-16T07:13:21;24.70;;;12.87;;
60964;SDS011;46834;51.100;6.886;2022-12-16T07:16:06;28.43;;;13.73;;
60964;SDS011;46834;51.100;6.886;2022-12-16T07:18:50;30.33;;;14.20;;
60964;SDS011;46834;51.100;6.886;2022-12-16T07:21:34;25.07;;;13.37;;
60964;SDS011;46834;51.100;6.886;2022-12-16T07:24:18;23.00;;;12.60;;
60964;SDS011;46834;51.100;6.886;2022-12-16T07:27:02;26.77;;;13.43;;
60964;SDS011;46834;51.100;6.886;2022-12-16T07:29:46;31.83;;;15.43;;
60964;SDS011;46834;51.100;6.886;2022-12-16T07:32:41;33.87;;;15.30;;
60964;SDS011;46834;51.100;6.886;2022-12-16T07:35:25;30.87;;;14.37;;
60964;SDS011;46834;51.100;6.886;2022-12-16T07:38:09;32.87;;;14.97;;
60964;SDS011;46834;51.100;6.886;2022-12-16T07:40:53;28.30;;;14.13;;
60964;SDS011;46834;51.100;6.886;2022-12-16T07:43:37;28.03;;;14.20;;
60964;SDS011;46834;51.100;6.886;2022-12-16T07:46:22;25.97;;;13.10;;
60964;SDS011;46834;51.100;6.886;2022-12-16T07:49:06;28.03;;;13.47;;
60964;SDS011;46834;51.100;6.886;2022-12-16T07:51:50;32.47;;;13.23;;
60964;SDS011;46834;51.100;6.886;2022-12-16T07:54:34;25.57;;;13.37;;
60964;SDS011;46834;51.100;6.886;2022-12-16T07:57:25;24.00;;;12.43;;
60964;SDS011;46834;51.100;6.886;2022-12-16T08:00:10;28.13;;;13.50;;
60964;SDS011;46834;51.100;6.886;2022-12-16T08:02:55;26.20;;;13.80;;
60964;SDS011;46834;51.100;6.886;2022-12-16T08:05:39;27.90;;;14.17;;
60964;SDS011;46834;51.100;6.886;2022-12-16T08:08:23;28.57;;;13.57;;
60964;SDS011;46834;51.100;6.886;2022-12-16T08:11:08;28.63;;;13.63;;
60964;SDS011;46834;51.100;6.886;2022-12-16T08:13:52;29.20;;;12.87;;
60964;SDS011;46834;51.100;6.886;2022-12-16T08:16:36;28.43;;;13.33;;
60964;SDS011;46834;51.100;6.886;2022-12-16T08:19:20;23.90;;;12.33;;
60964;SDS011;46834;51.100;6.886;2022-12-16T08:22:04;31.33;;;14.07;;
60964;SDS011;46834;51.100;6.886;2022-12-16T08:24:48;27.27;;;13.93;;
60964;SDS011;46834;51.100;6.886;2022-12-16T08:27:32;26.47;;;13.60;;
60964;SDS011;46834;51.100;6.886;2022-12-16T08:30:16;25.80;;;13.43;;
60964;SDS011;46834;51.100;6.886;2022-12-16T08:33:01;24.63;;;14.10;;
60964;SDS011;46834;51.100;6.886;2022-12-16T08:35:45;29.07;;;13.57;;
60964;SDS011;46834;51.100;6.886;2022-12-16T08:38:30;23.67;;;12.87;;
60964;SDS011;46834;51.100;6.886;2022-12-16T08:41:15;28.40;;;13.83;;
60964;SDS011;46834;51.100;6.886;2022-12-16T08:43:59;26.97;;;14.03;;
60964;SDS011;46834;51.100;6.886;2022-12-16T08:46:43;27.93;;;13.10;;
60964;SDS011;46834;51.100;6.886;2022-12-16T08:49:27;24.87;;;12.80;;
60964;SDS011;46834;51.100;6.886;2022-12-16T08:52:11;26.40;;;14.50;;
60964;SDS011;46834;51.100;6.886;2022-12-16T08:54:55;26.97;;;13.37;;
60964;SDS011;46834;51.100;6.886;2022-12-16T08:57:39;30.87;;;14.07;;
60964;SDS011;46834;51.100;6.886;2022-12-16T09:00:23;28.87;;;14.30;;
60964;SDS011;46834;51.100;6.886;2022-12-16T09:03:07;26.63;;;14.20;;
60964;SDS011;46834;51.100;6.886;2022-12-16T09:05:56;26.10;;;13.77;;
60964;SDS011;46834;51.100;6.886;2022-12-16T09:08:41;27.93;;;14.27;;
60964;SDS011;46834;51.100;6.886;2022-12-16T09:11:25;26.80;;;13.57;;
60964;SDS011;46834;51.100;6.886;2022-12-16T09:14:10;27.70;;;13.97;;
60964;SDS011;46834;51.100;6.886;2022-12-16T09:16:54;30.47;;;14.37;;
60964;SDS011;46834;51.100;6.886;2022-12-16T09:19:38;24.07;;;13.20;;
60964;SDS011;46834;51.100;6.886;2022-12-16T09:22:22;26.53;;;13.77;;
60964;SDS011;46834;51.100;6.886;2022-12-16T09:25:06;26.23;;;13.27;;
60964;SDS011;46834;51.100;6.886;2022-12-16T09:27:51;26.23;;;14.03;;
60964;SDS011;46834;51.100;6.886;2022-12-16T09:30:35;28.63;;;14.33;;
60964;SDS011;46834;51.100;6.886;2022-12-16T09:33:19;27.50;;;13.27;;
60964;SDS011;46834;51.100;6.886;2022-12-16T09:36:03;22.80;;;13.20;;
60964;SDS011;46834;51.100;6.886;2022-12-16T09:39:01;24.50;;;13.20;;
60964;SDS011;46834;51.100;6.886;2022-12-16T09:41:54;30.60;;;13.90;;
60964;SDS011;46834;51.100;6.886;2022-12-16T09:48:22;23.90;;;13.37;;
60964;SDS011;46834;51.100;6.886;2022-12-16T09:51:36;31.07;;;14.40;;
60964;SDS011;46834;51.100;6.886;2022-12-16T09:54:23;28.83;;;14.80;;
60964;SDS011;46834;51.100;6.886;2022-12-16T09:57:14;26.50;;;14.20;;
60964;SDS011;46834;51.100;6.886;2022-12-16T10:00:01;29.47;;;14.90;;
60964;SDS011;46834;51.100;6.886;2022-12-16T10:02:59;27.53;;;13.90;;
60964;SDS011;46834;51.100;6.886;2022-12-16T10:06:10;26.83;;;14.00;;
60964;SDS011;46834;51.100;6.886;2022-12-16T10:09:32;27.43;;;14.10;;
60964;SDS011;46834;51.100;6.886;2022-12-16T10:13:02;26.97;;;13.73;;
60964;SDS011;46834;51.100;6.886;2022-12-16T10:19:09;29.43;;;15.70;;
60964;SDS011;46834;51.100;6.886;2022-12-16T10:22:41;26.60;;;14.47;;
60964;SDS011;46834;51.100;6.886;2022-12-16T10:25:59;28.90;;;14.40;;
60964;SDS011;46834;51.100;6.886;2022-12-16T10:28:57;33.23;;;16.40;;
60964;SDS011;46834;51.100;6.886;2022-12-16T10:38:35;29.57;;;15.63;;
60964;SDS011;46834;51.100;6.886;2022-12-16T10:41:30;38.13;;;16.10;;
60964;SDS011;46834;51.100;6.886;2022-12-16T10:44:25;31.97;;;16.53;;
60964;SDS011;46834;51.100;6.886;2022-12-16T10:47:18;31.20;;;14.97;;
60964;SDS011;46834;51.100;6.886;2022-12-16T10:50:03;31.80;;;16.80;;
60964;SDS011;46834;51.100;6.886;2022-12-16T10:52:55;42.57;;;17.67;;
60964;SDS011;46834;51.100;6.886;2022-12-16T10:59:04;34.17;;;16.37;;
60964;SDS011;46834;51.100;6.886;2022-12-16T11:01:57;29.97;;;15.70;;
60964;SDS011;46834;51.100;6.886;2022-12-16T11:04:48;31.80;;;16.20;;
60964;SDS011;46834;51.100;6.886;2022-12-16T11:07:49;34.83;;;16.93;;
60964;SDS011;46834;51.100;6.886;2022-12-16T11:10:36;35.33;;;16.77;;
60964;SDS011;46834;51.100;6.886;2022-12-16T11:19:18;32.57;;;16.23;;
60964;SDS011;46834;51.100;6.886;2022-12-16T11:22:18;33.50;;;16.20;;
60964;SDS011;46834;51.100;6.886;2022-12-16T11:28:14;32.93;;;18.00;;
60964;SDS011;46834;51.100;6.886;2022-12-16T11:31:04;31.57;;;16.93;;
60964;SDS011;46834;51.100;6.886;2022-12-16T11:34:00;34.60;;;17.17;;
60964;SDS011;46834;51.100;6.886;2022-12-16T11:36:46;37.20;;;17.83;;
60964;SDS011;46834;51.100;6.886;2022-12-16T11:39:32;39.83;;;18.70;;
60964;SDS011;46834;51.100;6.886;2022-12-16T11:42:20;37.73;;;18.23;;
60964;SDS011;46834;51.100;6.886;2022-12-16T11:45:16;36.43;;;17.80;;
60964;SDS011;46834;51.100;6.886;2022-12-16T11:48:17;40.27;;;17.97;;
60964;SDS011;46834;51.100;6.886;2022-12-16T11:51:18;33.80;;;17.27;;
60964;SDS011;46834;51.100;6.886;2022-12-16T11:57:00;34.90;;;17.60;;
60964;SDS011;46834;51.100;6.886;2022-12-16T11:59:52;37.20;;;17.93;;
60964;SDS011;46834;51.100;6.886;2022-12-16T12:02:48;34.60;;;17.00;;
60964;SDS011;46834;51.100;6.886;2022-12-16T12:06:18;37.60;;;17.77;;
60964;SDS011;46834;51.100;6.886;2022-12-16T12:09:31;33.33;;;16.87;;
60964;SDS011;46834;51.100;6.886;2022-12-16T12:20:02;33.20;;;17.87;;
60964;SDS011;46834;51.100;6.886;2022-12-16T12:22:45;32.73;;;16.70;;
60964;SDS011;46834;51.100;6.886;2022-12-16T12:25:47;36.53;;;17.57;;
60964;SDS011;46834;51.100;6.886;2022-12-16T12:32:36;35.27;;;18.13;;
60964;SDS011;46834;51.100;6.886;2022-12-16T12:36:03;34.77;;;17.53;;
60964;SDS011;46834;51.100;6.886;2022-12-16T12:39:21;37.20;;;17.33;;
60964;SDS011;46834;51.100;6.886;2022-12-16T12:42:21;37.00;;;17.70;;
60964;SDS011;46834;51.100;6.886;2022-12-16T12:48:19;30.77;;;16.23;;
60964;SDS011;46834;51.100;6.886;2022-12-16T12:54:32;27.77;;;14.57;;
60964;SDS011;46834;51.100;6.886;2022-12-16T12:57:33;26.50;;;14.07;;
60964;SDS011;46834;51.100;6.886;2022-12-16T13:00:24;29.43;;;14.77;;
60964;SDS011;46834;51.100;6.886;2022-12-16T13:06:15;28.13;;;14.63;;
60964;SDS011;46834;51.100;6.886;2022-12-16T13:09:02;30.30;;;14.83;;
60964;SDS011;46834;51.100;6.886;2022-12-16T13:12:19;25.97;;;13.97;;
60964;SDS011;46834;51.100;6.886;2022-12-16T13:15:17;31.43;;;15.63;;
60964;SDS011;46834;51.100;6.886;2022-12-16T13:18:26;30.93;;;14.67;;
60964;SDS011;46834;51.100;6.886;2022-12-16T13:27:09;31.53;;;15.47;;
60964;SDS011;46834;51.100;6.886;2022-12-16T13:30:40;31.00;;;15.23;;
60964;SDS011;46834;51.100;6.886;2022-12-16T13:33:24;31.57;;;14.80;;
60964;SDS011;46834;51.100;6.886;2022-12-16T13:36:14;31.17;;;14.87;;
60964;SDS011;46834;51.100;6.886;2022-12-16T13:39:22;27.50;;;14.90;;
60964;SDS011;46834;51.100;6.886;2022-12-16T13:45:30;23.77;;;12.23;;
60964;SDS011;46834;51.100;6.886;2022-12-16T13:48:36;25.17;;;13.27;;
60964;SDS011;46834;51.100;6.886;2022-12-16T13:54:26;23.17;;;12.23;;
60964;SDS011;46834;51.100;6.886;2022-12-16T13:57:24;21.97;;;12.33;;
60964;SDS011;46834;51.100;6.886;2022-12-16T14:00:18;23.23;;;12.30;;
60964;SDS011;46834;51.100;6.886;2022-12-16T14:03:12;21.90;;;11.90;;
60964;SDS011;46834;51.100;6.886;2022-12-16T14:06:04;22.67;;;11.23;;
60964;SDS011;46834;51.100;6.886;2022-12-16T14:08:58;23.07;;;11.27;;
60964;SDS011;46834;51.100;6.886;2022-12-16T14:11:54;25.53;;;11.53;;
60964;SDS011;46834;51.100;6.886;2022-12-16T14:14:50;24.17;;;10.43;;
60964;SDS011;46834;51.100;6.886;2022-12-16T14:18:20;27.07;;;9.80;;
60964;SDS011;46834;51.100;6.886;2022-12-16T14:21:24;26.33;;;9.50;;
60964;SDS011;46834;51.100;6.886;2022-12-16T14:24:25;24.53;;;9.80;;
60964;SDS011;46834;51.100;6.886;2022-12-16T14:27:12;26.63;;;10.33;;
60964;SDS011;46834;51.100;6.886;2022-12-16T14:30:02;24.00;;;8.70;;
60964;SDS011;46834;51.100;6.886;2022-12-16T14:32:59;18.53;;;9.13;;
60964;SDS011;46834;51.100;6.886;2022-12-16T14:35:57;18.73;;;9.70;;
60964;SDS011;46834;51.100;6.886;2022-12-16T14:38:45;20.10;;;9.03;;
60964;SDS011;46834;51.100;6.886;2022-12-16T14:41:32;22.03;;;8.60;;
60964;SDS011;46834;51.100;6.886;2022-12-16T14:47:10;18.30;;;8.27;;
60964;SDS011;46834;51.100;6.886;2022-12-16T14:50:01;17.90;;;8.97;;
60964;SDS011;46834;51.100;6.886;2022-12-16T14:53:05;30.53;;;10.40;;
60964;SDS011;46834;51.100;6.886;2022-12-16T14:56:17;21.47;;;9.03;;
60964;SDS011;46834;51.100;6.886;2022-12-16T14:59:08;21.93;;;9.67;;
60964;SDS011;46834;51.100;6.886;2022-12-16T15:02:11;21.07;;;9.20;;
60964;SDS011;46834;51.100;6.886;2022-12-16T15:05:12;20.90;;;9.37;;
60964;SDS011;46834;51.100;6.886;2022-12-16T15:07:57;27.37;;;11.77;;
60964;SDS011;46834;51.100;6.886;2022-12-16T15:10:43;28.13;;;11.87;;
60964;SDS011;46834;51.100;6.886;2022-12-16T15:13:28;26.57;;;12.03;;
60964;SDS011;46834;51.100;6.886;2022-12-16T15:16:14;31.60;;;10.93;;
60964;SDS011;46834;51.100;6.886;2022-12-16T15:19:05;27.07;;;11.00;;
60964;SDS011;46834;51.100;6.886;2022-12-16T15:21:51;37.67;;;10.87;;
60964;SDS011;46834;51.100;6.886;2022-12-16T15:24:36;26.43;;;10.67;;
60964;SDS011;46834;51.100;6.886;2022-12-16T15:27:25;27.70;;;11.57;;
60964;SDS011;46834;51.100;6.886;2022-12-16T15:33:20;28.03;;;9.27;;
60964;SDS011;46834;51.100;6.886;2022-12-16T15:36:35;25.90;;;9.23;;
60964;SDS011;46834;51.100;6.886;2022-12-16T15:39:24;22.37;;;9.17;;
60964;SDS011;46834;51.100;6.886;2022-12-16T15:45:17;26.50;;;9.87;;
60964;SDS011;46834;51.100;6.886;2022-12-16T15:48:08;32.60;;;10.27;;
60964;SDS011;46834;51.100;6.886;2022-12-16T15:50:59;27.00;;;10.03;;
60964;SDS011;46834;51.100;6.886;2022-12-16T15:53:43;21.37;;;9.43;;
60964;SDS011;46834;51.100;6.886;2022-12-16T15:56:32;26.73;;;9.20;;
60964;SDS011;46834;51.100;6.886;2022-12-16T15:59:32;26.37;;;10.17;;
60964;SDS011;46834;51.100;6.886;2022-12-16T16:02:44;22.77;;;9.87;;
60964;SDS011;46834;51.100;6.886;2022-12-16T16:05:32;21.30;;;9.27;;
60964;SDS011;46834;51.100;6.886;2022-12-16T16:08:18;19.67;;;8.60;;
60964;SDS011;46834;51.100;6.886;2022-12-16T16:11:03;19.17;;;7.83;;
60964;SDS011;46834;51.100;6.886;2022-12-16T16:13:47;20.73;;;9.00;;
60964;SDS011;46834;51.100;6.886;2022-12-16T16:16:31;19.73;;;9.40;;
60964;SDS011;46834;51.100;6.886;2022-12-16T16:19:19;18.03;;;8.40;;
60964;SDS011;46834;51.100;6.886;2022-12-16T16:22:09;22.30;;;9.53;;
60964;SDS011;46834;51.100;6.886;2022-12-16T16:24:55;23.17;;;9.80;;
60964;SDS011;46834;51.100;6.886;2022-12-16T16:27:40;20.93;;;9.17;;
60964;SDS011;46834;51.100;6.886;2022-12-16T16:30:25;19.30;;;9.20;;
60964;SDS011;46834;51.100;6.886;2022-12-16T16:33:09;27.53;;;10.13;;
60964;SDS011;46834;51.100;6.886;2022-12-16T16:35:53;18.13;;;9.20;;
60964;SDS011;46834;51.100;6.886;2022-12-16T16:38:37;20.60;;;8.97;;
60964;SDS011;46834;51.100;6.886;2022-12-16T16:41:21;23.70;;;10.80;;
60964;SDS011;46834;51.100;6.886;2022-12-16T16:44:06;23.17;;;10.07;;
60964;SDS011;46834;51.100;6.886;2022-12-16T16:46:51;23.57;;;10.00;;
60964;SDS011;46834;51.100;6.886;2022-12-16T16:49:42;22.70;;;9.57;;
60964;SDS011;46834;51.100;6.886;2022-12-16T16:52:43;19.40;;;9.63;;
60964;SDS011;46834;51.100;6.886;2022-12-16T16:55:27;21.97;;;9.47;;
60964;SDS011;46834;51.100;6.886;2022-12-16T16:58:12;20.93;;;10.20;;
60964;SDS011;46834;51.100;6.886;2022-12-16T17:01:10;28.00;;;10.83;;
60964;SDS011;46834;51.100;6.886;2022-12-16T17:03:56;24.07;;;11.10;;
60964;SDS011;46834;51.100;6.886;2022-12-16T17:06:41;28.27;;;10.03;;
60964;SDS011;46834;51.100;6.886;2022-12-16T17:09:25;24.43;;;10.20;;
60964;SDS011;46834;51.100;6.886;2022-12-16T17:12:20;20.73;;;8.83;;
60964;SDS011;46834;51.100;6.886;2022-12-16T17:15:15;23.90;;;10.30;;
60964;SDS011;46834;51.100;6.886;2022-12-16T17:18:04;27.87;;;10.43;;
60964;SDS011;46834;51.100;6.886;2022-12-16T17:20:49;20.63;;;9.77;;
60964;SDS011;46834;51.100;6.886;2022-12-16T17:23:35;28.17;;;10.67;;
60964;SDS011;46834;51.100;6.886;2022-12-16T17:26:20;24.07;;;10.10;;
60964;SDS011;46834;51.100;6.886;2022-12-16T17:29:04;22.13;;;9.73;;
60964;SDS011;46834;51.100;6.886;2022-12-16T17:32:00;24.13;;;9.97;;
60964;SDS011;46834;51.100;6.886;2022-12-16T17:34:44;21.53;;;9.03;;
60964;SDS011;46834;51.100;6.886;2022-12-16T17:37:28;23.67;;;9.67;;
60964;SDS011;46834;51.100;6.886;2022-12-16T17:40:12;23.30;;;10.20;;
60964;SDS011;46834;51.100;6.886;2022-12-16T17:42:56;25.37;;;10.17;;
60964;SDS011;46834;51.100;6.886;2022-12-16T17:45:40;25.53;;;10.53;;